createdAt,value
2022-08-12T00:02:03.576Z,3.78
2022-08-12T00:05:13.063Z,4.28
2022-08-12T00:08:28.724Z,4.35
2022-08-12T00:11:42.906Z,3.95
2022-08-12T00:14:48.448Z,3.83
2022-08-12T00:17:53.870Z,3.85
2022-08-12T00:21:02.397Z,4.57
2022-08-12T00:24:13.326Z,4.50
2022-08-12T00:27:20.133Z,4.28
2022-08-12T00:30:26.240Z,4.45
2022-08-12T00:33:37.162Z,4.22
2022-08-12T00:37:02.321Z,3.25
2022-08-12T00:40:27.435Z,4.35
2022-08-12T00:43:21.098Z,4.03
2022-08-12T00:46:26.695Z,4.70
2022-08-12T00:49:16.232Z,4.00
2022-08-12T00:52:11.916Z,4.50
2022-08-12T00:55:00.736Z,4.40
2022-08-12T00:57:51.548Z,4.45
2022-08-12T01:00:41.518Z,4.57
2022-08-12T01:03:53.859Z,4.10
2022-08-12T01:07:01.298Z,3.42
2022-08-12T01:10:07.254Z,5.25
2022-08-12T01:12:54.115Z,4.28
2022-08-12T01:15:59.184Z,5.15
2022-08-12T01:18:46.081Z,5.38
2022-08-12T01:22:04.723Z,3.25
2022-08-12T01:25:12.505Z,3.75
2022-08-12T01:28:01.845Z,4.05
2022-08-12T01:30:52.095Z,5.30
2022-08-12T01:34:28.365Z,3.63
2022-08-12T01:37:20.249Z,4.80
2022-08-12T01:40:34.148Z,4.35
2022-08-12T01:43:24.613Z,5.32
2022-08-12T01:46:27.046Z,4.15
2022-08-12T01:49:21.614Z,4.75
2022-08-12T01:52:43.434Z,5.22
2022-08-12T01:55:38.858Z,4.03
2022-08-12T01:58:57.767Z,3.60
2022-08-12T02:01:48.447Z,4.65
2022-08-12T02:05:10.065Z,4.90
2022-08-12T02:08:43.324Z,3.97
2022-08-12T02:11:55.188Z,4.25
2022-08-12T02:15:00.834Z,4.60
2022-08-12T02:18:00.242Z,5.60
2022-08-12T02:20:58.061Z,5.10
2022-08-12T02:24:01.972Z,5.63
2022-08-12T02:26:49.857Z,5.13
2022-08-12T02:29:39.983Z,3.78
2022-08-12T02:32:27.024Z,5.22
2022-08-12T02:35:18.253Z,4.90
2022-08-12T02:38:08.994Z,4.07
2022-08-12T02:40:56.089Z,5.32
2022-08-12T02:43:50.812Z,5.80
2022-08-12T02:46:37.784Z,6.28
2022-08-12T02:49:29.941Z,5.50
2022-08-12T02:52:17.947Z,4.40
2022-08-12T02:55:28.415Z,4.78
2022-08-12T02:58:21.091Z,3.75
2022-08-12T03:01:24.359Z,5.85
2022-08-12T03:04:20.482Z,6.50
2022-08-12T03:07:14.678Z,4.63
2022-08-12T03:10:15.795Z,5.68
2022-08-12T03:13:06.972Z,4.97
2022-08-12T03:15:55.521Z,5.85
2022-08-12T03:18:45.809Z,4.72
2022-08-12T03:21:59.911Z,5.72
2022-08-12T03:24:45.332Z,4.53
2022-08-12T03:27:32.492Z,4.77
2022-08-12T03:30:19.892Z,5.68
2022-08-12T03:33:06.732Z,5.60
2022-08-12T03:35:53.951Z,5.30
2022-08-12T03:38:43.167Z,5.22
2022-08-12T03:41:34.982Z,5.40
2022-08-12T03:44:50.326Z,4.97
2022-08-12T03:48:06.600Z,5.45
2022-08-12T03:51:12.635Z,4.88
2022-08-12T03:54:18.395Z,5.22
2022-08-12T03:57:25.060Z,5.63
2022-08-12T04:00:24.174Z,6.43
2022-08-12T04:03:31.389Z,5.35
2022-08-12T04:06:35.593Z,4.97
2022-08-12T04:09:23.183Z,5.50
2022-08-12T04:12:32.458Z,6.47
2022-08-12T04:15:20.787Z,5.25
2022-08-12T04:18:08.122Z,5.57
2022-08-12T04:20:55.218Z,5.35
2022-08-12T04:23:48.433Z,5.38
2022-08-12T04:26:46.708Z,5.93
2022-08-12T04:30:16.591Z,5.30
2022-08-12T04:32:52.136Z,4.78
2022-08-12T04:35:40.797Z,5.32
2022-08-12T04:38:29.205Z,5.35
2022-08-12T04:41:16.338Z,4.28
2022-08-12T04:44:05.135Z,5.43
2022-08-12T04:49:40.710Z,6.25
2022-08-12T04:52:31.808Z,5.35
2022-08-12T04:55:23.447Z,5.50
2022-08-12T04:58:10.466Z,6.00
2022-08-12T05:00:57.429Z,5.53
2022-08-12T05:03:46.320Z,5.60
2022-08-12T05:06:34.521Z,7.00
2022-08-12T05:09:21.309Z,5.40
2022-08-12T05:12:09.190Z,5.80
2022-08-12T05:14:56.064Z,5.53
2022-08-12T05:17:43.304Z,5.38
2022-08-12T05:20:30.848Z,6.20
2022-08-12T05:23:19.937Z,6.32
2022-08-12T05:26:06.905Z,6.30
2022-08-12T05:28:54.205Z,6.13
2022-08-12T05:31:47.647Z,5.93
2022-08-12T05:34:35.340Z,6.32
2022-08-12T05:37:22.715Z,5.70
2022-08-12T05:40:11.653Z,6.13
2022-08-12T05:42:58.611Z,5.82
2022-08-12T05:45:46.271Z,6.00
2022-08-12T05:48:33.091Z,6.47
2022-08-12T05:51:24.722Z,4.38
2022-08-12T05:54:16.823Z,6.57
2022-08-12T05:57:03.856Z,6.53
2022-08-12T05:59:50.638Z,7.18
2022-08-12T06:02:37.424Z,5.75
2022-08-12T06:05:24.207Z,5.35
2022-08-12T06:08:11.883Z,5.60
2022-08-12T06:10:58.708Z,5.93
2022-08-12T06:13:53.948Z,5.70
2022-08-12T06:16:41.182Z,6.13
2022-08-12T06:20:27.501Z,4.65
2022-08-12T06:22:37.315Z,5.07
2022-08-12T06:25:29.151Z,5.33
2022-08-12T06:28:17.409Z,8.40
2022-08-12T06:37:21.355Z,7.75
2022-08-12T06:40:13.658Z,5.75
2022-08-12T06:43:00.448Z,4.87
2022-08-12T06:45:49.162Z,6.97
2022-08-12T06:48:37.411Z,5.68
2022-08-12T06:51:29.046Z,5.63
2022-08-12T06:54:27.061Z,5.10
2022-08-12T06:58:08.044Z,5.32
2022-08-12T07:00:31.282Z,4.78
2022-08-12T07:03:27.660Z,5.88
2022-08-12T07:06:14.561Z,5.93
2022-08-12T07:09:03.905Z,4.97
2022-08-12T07:11:51.098Z,5.80
2022-08-12T07:14:41.044Z,5.15
2022-08-12T07:17:37.257Z,6.05
2022-08-12T07:20:51.355Z,4.82
2022-08-12T07:23:33.950Z,5.05
2022-08-12T07:26:21.376Z,5.13
2022-08-12T07:29:13.199Z,6.05
2022-08-12T07:32:00.028Z,5.65
2022-08-12T07:34:47.279Z,4.20
2022-08-12T07:37:40.549Z,7.38
2022-08-12T07:40:30.190Z,7.55
2022-08-12T07:43:16.969Z,5.97
2022-08-12T07:46:05.640Z,5.35
2022-08-12T07:48:55.118Z,3.83
2022-08-12T07:51:43.266Z,5.28
2022-08-12T07:54:30.097Z,5.53
2022-08-12T07:57:16.915Z,5.07
2022-08-12T08:00:06.183Z,4.72
2022-08-12T08:02:54.226Z,3.92
2022-08-12T08:05:46.225Z,4.63
2022-08-12T08:08:33.040Z,3.33
2022-08-12T08:11:38.555Z,4.53
2022-08-12T08:14:29.422Z,3.20
2022-08-12T08:17:17.354Z,4.25
2022-08-12T08:20:06.028Z,3.57
2022-08-12T08:25:40.643Z,3.42
2022-08-12T08:28:27.452Z,4.55
2022-08-12T08:31:14.933Z,3.20
2022-08-12T08:34:49.189Z,3.45
2022-08-12T08:37:10.834Z,5.45
2022-08-12T08:40:25.075Z,3.13
2022-08-12T08:43:11.851Z,2.85
2022-08-12T08:46:02.914Z,2.97
2022-08-12T08:48:50.874Z,3.50
2022-08-12T08:51:39.009Z,3.10
2022-08-12T08:54:25.826Z,3.33
2022-08-12T08:57:12.777Z,2.70
2022-08-12T09:00:00.204Z,2.72
2022-08-12T09:02:49.481Z,4.35
2022-08-12T09:06:02.275Z,2.80
2022-08-12T09:08:50.077Z,2.10
2022-08-12T09:18:11.902Z,2.25
2022-08-12T09:20:58.764Z,1.90
2022-08-12T09:23:57.095Z,2.38
2022-08-12T09:26:48.511Z,3.47
2022-08-12T09:30:11.153Z,3.53
2022-08-12T09:33:04.398Z,3.70
2022-08-12T09:36:03.285Z,5.80
2022-08-12T09:38:58.487Z,4.22
2022-08-12T09:42:43.020Z,2.90
2022-08-12T09:46:05.428Z,4.35
2022-08-12T09:48:34.846Z,2.85
2022-08-12T09:51:23.056Z,3.45
2022-08-12T09:54:32.787Z,2.55
2022-08-12T09:58:07.455Z,2.60
2022-08-12T10:00:30.569Z,3.05
2022-08-12T10:03:33.191Z,2.13
2022-08-12T10:06:32.016Z,3.00
2022-08-12T10:09:28.890Z,2.35
2022-08-12T10:13:10.243Z,1.77
2022-08-12T10:16:02.925Z,2.35
2022-08-12T10:18:53.758Z,1.52
2022-08-12T10:21:43.728Z,1.90
2022-08-12T10:24:30.643Z,1.60
2022-08-12T10:28:03.422Z,1.88
2022-08-12T10:30:46.886Z,1.92
2022-08-12T10:34:04.962Z,2.15
2022-08-12T10:37:10.733Z,2.03
2022-08-12T10:40:18.954Z,2.92
2022-08-12T10:43:26.058Z,3.58
2022-08-12T10:46:17.515Z,2.40
2022-08-12T10:50:04.785Z,1.38
2022-08-12T10:52:33.033Z,1.53
2022-08-12T10:55:21.900Z,2.22
2022-08-12T10:58:27.814Z,1.95
2022-08-12T11:01:49.734Z,2.35
2022-08-12T11:04:44.888Z,3.05
2022-08-12T11:08:34.724Z,2.13
2022-08-12T11:10:42.633Z,1.27
2022-08-12T11:13:45.894Z,3.10
2022-08-12T11:16:33.878Z,2.67
2022-08-12T11:19:22.613Z,2.88
2022-08-12T11:22:10.817Z,1.40
2022-08-12T11:24:58.509Z,2.03
2022-08-12T11:27:45.558Z,2.22
2022-08-12T11:30:38.099Z,1.83
2022-08-12T11:34:05.011Z,1.77
2022-08-12T11:36:31.732Z,1.35
2022-08-12T11:39:18.951Z,1.38
2022-08-12T11:42:32.151Z,1.33
2022-08-12T11:45:19.731Z,1.58
2022-08-12T11:48:06.579Z,1.75
2022-08-12T11:50:54.430Z,1.80
2022-08-12T11:53:58.282Z,2.35
2022-08-12T11:56:52.345Z,3.05
2022-08-12T12:02:54.705Z,2.25
2022-08-12T12:05:45.859Z,2.78
2022-08-12T12:08:40.726Z,2.47
2022-08-12T12:11:49.091Z,2.38
2022-08-12T12:14:38.244Z,2.65
2022-08-12T12:17:26.558Z,2.20
2022-08-12T12:20:26.018Z,2.35
2022-08-12T12:23:29.195Z,1.60
2022-08-12T12:26:34.884Z,1.88
2022-08-12T12:30:13.836Z,1.70
2022-08-12T12:32:30.886Z,1.20
2022-08-12T12:36:06.520Z,2.65
2022-08-12T12:38:25.043Z,1.73
2022-08-12T12:41:16.916Z,1.77
2022-08-12T12:44:04.745Z,2.25
2022-08-12T12:46:51.589Z,2.20
2022-08-12T12:49:41.614Z,2.28
2022-08-12T12:52:28.425Z,1.48
2022-08-12T12:55:16.821Z,2.50
2022-08-12T12:58:05.748Z,1.40
2022-08-12T13:00:57.481Z,2.00
2022-08-12T13:03:48.689Z,2.10
2022-08-12T13:06:36.852Z,2.33
2022-08-12T13:09:23.772Z,1.47
2022-08-12T13:12:12.514Z,1.75
2022-08-12T13:14:59.279Z,2.28
2022-08-12T13:18:03.356Z,2.65
2022-08-12T13:20:52.150Z,2.75
2022-08-12T13:23:47.930Z,1.63
2022-08-12T13:26:35.111Z,2.55
2022-08-12T13:29:24.304Z,1.90
2022-08-12T13:32:31.022Z,1.00
2022-08-12T13:35:19.626Z,2.60
2022-08-12T13:38:10.187Z,2.10
2022-08-12T13:40:58.408Z,1.77
2022-08-12T13:43:45.259Z,1.20
2022-08-12T13:46:32.054Z,1.85
2022-08-12T13:49:54.160Z,1.08
2022-08-12T13:52:25.846Z,1.85
2022-08-12T13:55:12.723Z,1.85
2022-08-12T13:58:01.676Z,1.90
2022-08-12T14:00:51.840Z,0.88
2022-08-12T14:03:51.104Z,1.75
2022-08-12T14:06:40.006Z,1.65
2022-08-12T14:12:16.622Z,1.77
2022-08-12T14:15:03.594Z,1.40
2022-08-12T14:17:52.137Z,1.77
2022-08-12T14:20:39.991Z,1.35
2022-08-12T14:24:04.990Z,1.45
2022-08-12T14:26:36.317Z,1.25
2022-08-12T14:29:55.673Z,1.48
2022-08-12T14:32:35.254Z,1.63
2022-08-12T14:35:24.426Z,1.58
2022-08-12T14:38:16.179Z,1.48
2022-08-12T14:41:05.007Z,1.40
2022-08-12T14:44:04.400Z,2.08
2022-08-12T14:47:06.097Z,1.38
2022-08-12T14:50:37.327Z,1.58
2022-08-12T14:59:57.331Z,1.98
2022-08-12T15:02:45.487Z,1.20
2022-08-12T15:06:06.365Z,1.83
2022-08-12T15:08:51.903Z,1.17
2022-08-12T15:11:48.778Z,1.15
2022-08-12T15:14:42.886Z,1.42
2022-08-12T15:17:37.812Z,1.83
2022-08-12T15:20:32.588Z,1.50
2022-08-12T15:23:28.905Z,2.40
2022-08-12T15:26:20.820Z,1.67
2022-08-12T15:29:14.457Z,1.90
2022-08-12T15:32:08.991Z,1.30
2022-08-12T15:35:03.526Z,1.63
2022-08-12T15:38:12.023Z,1.20
2022-08-12T15:41:03.157Z,2.53
2022-08-12T15:44:36.653Z,3.22
2022-08-12T15:55:45.803Z,1.80
2022-08-12T15:58:33.981Z,1.58
2022-08-12T16:01:24.561Z,1.30
2022-08-12T16:04:13.961Z,1.83
2022-08-12T16:07:06.046Z,1.45
2022-08-12T16:10:05.549Z,1.42
2022-08-12T16:13:01.917Z,2.30
2022-08-12T16:16:02.375Z,1.88
2022-08-12T16:18:49.929Z,3.10
2022-08-12T16:21:52.497Z,1.58
2022-08-12T16:24:47.927Z,2.60
2022-08-12T16:27:39.421Z,1.38
2022-08-12T16:30:32.738Z,2.13
2022-08-12T16:33:25.340Z,2.08
2022-08-12T16:36:25.056Z,1.00
2022-08-12T16:39:16.638Z,0.90
2022-08-12T16:42:15.629Z,1.40
2022-08-12T16:45:14.385Z,1.83
2022-08-12T16:48:01.472Z,2.55
2022-08-12T16:50:52.931Z,1.25
2022-08-12T16:53:44.589Z,1.73
2022-08-12T16:56:33.680Z,1.70
2022-08-12T16:59:52.867Z,4.05
2022-08-12T17:02:36.835Z,2.03
2022-08-12T17:05:25.062Z,1.98
2022-08-12T17:08:21.507Z,2.40
2022-08-12T17:11:18.146Z,2.05
2022-08-12T17:14:06.501Z,1.25
2022-08-12T17:16:56.981Z,1.55
2022-08-12T17:20:30.371Z,1.60
2022-08-12T17:22:56.416Z,1.48
2022-08-12T17:25:50.357Z,1.63
2022-08-12T17:28:40.030Z,1.20
2022-08-12T17:32:00.507Z,2.30
2022-08-12T17:35:12.576Z,1.13
2022-08-12T17:38:05.480Z,1.52
2022-08-12T17:41:57.970Z,3.10
2022-08-12T17:44:59.702Z,2.70
2022-08-12T17:48:05.214Z,2.95
2022-08-12T17:50:55.897Z,1.70
2022-08-12T18:18:44.547Z,2.53
2022-08-12T20:21:15.150Z,2.92
